sensor_id;sensor_type;location;lat;lon;timestamp;pressure;altitude;pressure_sealevel;temperature;humidity
68456;BME280;55437;55.046;38.838;2023-04-30T00:01:47;100373.41;;;4.14;72.40
68456;BME280;55437;55.046;38.838;2023-04-30T00:04:13;100371.75;;;4.19;72.50
68456;BME280;55437;55.046;38.838;2023-04-30T00:06:39;100367.50;;;4.18;72.08
68456;BME280;55437;55.046;38.838;2023-04-30T00:09:04;100362.41;;;4.13;71.69
68456;BME280;55437;55.046;38.838;2023-04-30T00:11:30;100367.47;;;4.07;71.61
68456;BME280;55437;55.046;38.838;2023-04-30T00:13:56;100364.91;;;4.01;71.66
68456;BME280;55437;55.046;38.838;2023-04-30T00:16:22;100364.91;;;4.01;71.61
68456;BME280;55437;55.046;38.838;2023-04-30T00:18:47;100369.97;;;3.99;71.40
68456;BME280;55437;55.046;38.838;2023-04-30T00:21:13;100371.69;;;4.01;71.52
68456;BME280;55437;55.046;38.838;2023-04-30T00:23:39;100378.47;;;4.02;71.41
68456;BME280;55437;55.046;38.838;2023-04-30T00:26:05;100382.69;;;3.96;71.36
68456;BME280;55437;55.046;38.838;2023-04-30T00:28:31;100380.97;;;3.91;71.30
68456;BME280;55437;55.046;38.838;2023-04-30T00:30:56;100383.50;;;3.86;71.43
68456;BME280;55437;55.046;38.838;2023-04-30T00:33:23;100385.16;;;3.80;71.88
68456;BME280;55437;55.046;38.838;2023-04-30T00:35:49;100383.47;;;3.79;71.71
68456;BME280;55437;55.046;38.838;2023-04-30T00:38:15;100374.97;;;3.77;71.42
68456;BME280;55437;55.046;38.838;2023-04-30T00:40:41;100380.91;;;3.79;71.71
68456;BME280;55437;55.046;38.838;2023-04-30T00:43:07;100381.75;;;3.76;71.70
68456;BME280;55437;55.046;38.838;2023-04-30T00:45:33;100380.06;;;3.77;71.59
68456;BME280;55437;55.046;38.838;2023-04-30T00:47:59;100384.31;;;3.73;71.56
68456;BME280;55437;55.046;38.838;2023-04-30T00:50:25;100379.19;;;3.67;71.77
68456;BME280;55437;55.046;38.838;2023-04-30T00:52:51;100383.41;;;3.68;71.69
68456;BME280;55437;55.046;38.838;2023-04-30T00:55:17;100380.88;;;3.70;71.76
68456;BME280;55437;55.046;38.838;2023-04-30T00:57:43;100386.81;;;3.70;71.67
68456;BME280;55437;55.046;38.838;2023-04-30T01:00:09;100383.38;;;3.60;71.64
68456;BME280;55437;55.046;38.838;2023-04-30T01:02:36;100392.63;;;3.52;71.87
68456;BME280;55437;55.046;38.838;2023-04-30T01:05:03;100379.09;;;3.52;71.77
68456;BME280;55437;55.046;38.838;2023-04-30T01:07:30;100381.63;;;3.52;71.52
68456;BME280;55437;55.046;38.838;2023-04-30T01:09:56;100378.25;;;3.48;71.47
68456;BME280;55437;55.046;38.838;2023-04-30T01:12:28;100377.38;;;3.45;71.61
68456;BME280;55437;55.046;38.838;2023-04-30T01:15:10;100364.66;;;3.43;71.57
68456;BME280;55437;55.046;38.838;2023-04-30T01:20:15;100362.91;;;3.30;71.83
68456;BME280;55437;55.046;38.838;2023-04-30T01:22:47;100365.44;;;3.30;71.89
68456;BME280;55437;55.046;38.838;2023-04-30T01:28:09;100362.03;;;3.25;71.91
68456;BME280;55437;55.046;38.838;2023-04-30T01:30:38;100360.31;;;3.21;72.27
68456;BME280;55437;55.046;38.838;2023-04-30T01:33:06;100356.91;;;3.19;72.42
68456;BME280;55437;55.046;38.838;2023-04-30T01:46:45;100356.91;;;3.13;72.71
68456;BME280;55437;55.046;38.838;2023-04-30T01:53:07;100355.22;;;3.18;72.75
68456;BME280;55437;55.046;38.838;2023-04-30T01:55:10;100358.63;;;3.26;72.90
68456;BME280;55437;55.046;38.838;2023-04-30T01:57:41;100357.88;;;3.35;72.70
68456;BME280;55437;55.046;38.838;2023-04-30T02:00:07;100347.72;;;3.41;72.89
68456;BME280;55437;55.046;38.838;2023-04-30T02:02:40;100346.09;;;3.49;72.61
68456;BME280;55437;55.046;38.838;2023-04-30T02:05:06;100342.78;;;3.60;72.67
68456;BME280;55437;55.046;38.838;2023-04-30T02:07:44;100338.56;;;3.76;72.53
68456;BME280;55437;55.046;38.838;2023-04-30T02:10:11;100338.66;;;3.96;72.03
68456;BME280;55437;55.046;38.838;2023-04-30T02:12:38;100342.94;;;4.23;71.55
68456;BME280;55437;55.046;38.838;2023-04-30T02:15:05;100336.19;;;4.72;70.78
68456;BME280;55437;55.046;38.838;2023-04-30T02:17:32;100328.50;;;5.30;69.60
68456;BME280;55437;55.046;38.838;2023-04-30T02:19:58;100323.19;;;5.82;68.64
68456;BME280;55437;55.046;38.838;2023-04-30T02:22:25;100322.84;;;6.41;67.54
68456;BME280;55437;55.046;38.838;2023-04-30T02:24:51;100319.69;;;7.12;65.94
68456;BME280;55437;55.046;38.838;2023-04-30T02:27:23;100314.66;;;7.78;64.70
68456;BME280;55437;55.046;38.838;2023-04-30T02:29:49;100318.19;;;8.33;63.27
68456;BME280;55437;55.046;38.838;2023-04-30T02:32:15;100311.22;;;8.93;62.20
68456;BME280;55437;55.046;38.838;2023-04-30T02:34:41;100299.06;;;9.47;60.98
68456;BME280;55437;55.046;38.838;2023-04-30T02:37:07;100311.22;;;9.79;60.13
68456;BME280;55437;55.046;38.838;2023-04-30T02:39:33;100306.06;;;10.21;59.05
68456;BME280;55437;55.046;38.838;2023-04-30T02:41:59;100306.94;;;10.20;58.65
68456;BME280;55437;55.046;38.838;2023-04-30T02:44:25;100304.66;;;10.06;58.59
68456;BME280;55437;55.046;38.838;2023-04-30T02:46:51;100300.00;;;9.85;58.43
68456;BME280;55437;55.046;38.838;2023-04-30T02:49:17;100302.66;;;9.80;58.87
68456;BME280;55437;55.046;38.838;2023-04-30T02:51:43;100302.38;;;9.94;58.52
68456;BME280;55437;55.046;38.838;2023-04-30T02:54:08;100302.84;;;10.11;57.80
68456;BME280;55437;55.046;38.838;2023-04-30T02:56:35;100296.72;;;10.18;57.74
68456;BME280;55437;55.046;38.838;2023-04-30T02:59:01;100295.28;;;10.03;57.55
68456;BME280;55437;55.046;38.838;2023-04-30T03:01:26;100299.81;;;9.92;58.20
68456;BME280;55437;55.046;38.838;2023-04-30T03:03:52;100295.00;;;10.19;57.25
68456;BME280;55437;55.046;38.838;2023-04-30T03:06:18;100294.44;;;10.03;57.43
68456;BME280;55437;55.046;38.838;2023-04-30T03:08:44;100287.22;;;9.83;57.84
68456;BME280;55437;55.046;38.838;2023-04-30T03:11:09;100298.75;;;9.64;58.13
68456;BME280;55437;55.046;38.838;2023-04-30T03:13:36;100286.44;;;9.39;58.39
68456;BME280;55437;55.046;38.838;2023-04-30T03:16:02;100295.25;;;9.25;58.80
68456;BME280;55437;55.046;38.838;2023-04-30T03:18:31;100293.88;;;9.07;59.20
68456;BME280;55437;55.046;38.838;2023-04-30T03:20:57;100291.53;;;8.95;59.60
68456;BME280;55437;55.046;38.838;2023-04-30T03:23:25;100287.44;;;8.86;60.08
68456;BME280;55437;55.046;38.838;2023-04-30T03:25:52;100295.22;;;8.80;60.30
68456;BME280;55437;55.046;38.838;2023-04-30T03:28:17;100295.25;;;8.79;60.46
68456;BME280;55437;55.046;38.838;2023-04-30T03:30:43;100283.22;;;8.82;60.44
68456;BME280;55437;55.046;38.838;2023-04-30T03:33:09;100286.53;;;8.89;60.81
68456;BME280;55437;55.046;38.838;2023-04-30T03:35:35;100284.72;;;8.94;60.62
68456;BME280;55437;55.046;38.838;2023-04-30T03:38:01;100272.63;;;9.02;60.60
68456;BME280;55437;55.046;38.838;2023-04-30T03:40:27;100268.00;;;9.21;60.18
68456;BME280;55437;55.046;38.838;2023-04-30T03:42:54;100263.72;;;9.20;60.48
68456;BME280;55437;55.046;38.838;2023-04-30T03:45:20;100253.69;;;9.09;60.54
68456;BME280;55437;55.046;38.838;2023-04-30T03:47:46;100251.16;;;9.08;60.73
68456;BME280;55437;55.046;38.838;2023-04-30T03:50:14;100239.97;;;9.13;61.02
68456;BME280;55437;55.046;38.838;2023-04-30T03:52:41;100240.94;;;9.06;61.11
68456;BME280;55437;55.046;38.838;2023-04-30T03:55:09;100239.38;;;8.99;61.26
68456;BME280;55437;55.046;38.838;2023-04-30T03:57:35;100242.81;;;8.98;61.15
68456;BME280;55437;55.046;38.838;2023-04-30T04:00:02;100223.09;;;9.03;61.00
68456;BME280;55437;55.046;38.838;2023-04-30T04:02:39;100233.13;;;9.14;61.11
68456;BME280;55437;55.046;38.838;2023-04-30T04:05:08;100224.44;;;9.21;60.36
68456;BME280;55437;55.046;38.838;2023-04-30T04:07:34;100227.09;;;9.16;60.12
68456;BME280;55437;55.046;38.838;2023-04-30T04:10:00;100230.31;;;9.26;59.11
68456;BME280;55437;55.046;38.838;2023-04-30T04:12:29;100222.22;;;9.46;58.67
68456;BME280;55437;55.046;38.838;2023-04-30T04:14:55;100223.13;;;9.43;58.17
68456;BME280;55437;55.046;38.838;2023-04-30T04:17:21;100218.78;;;9.47;57.65
68456;BME280;55437;55.046;38.838;2023-04-30T04:19:47;100212.00;;;9.44;56.89
68456;BME280;55437;55.046;38.838;2023-04-30T04:22:15;100213.78;;;9.41;57.08
68456;BME280;55437;55.046;38.838;2023-04-30T04:24:40;100199.38;;;9.35;56.36
68456;BME280;55437;55.046;38.838;2023-04-30T04:27:07;100196.53;;;9.49;55.87
68456;BME280;55437;55.046;38.838;2023-04-30T04:29:33;100200.56;;;9.59;55.12
68456;BME280;55437;55.046;38.838;2023-04-30T04:31:59;100193.50;;;9.68;54.64
68456;BME280;55437;55.046;38.838;2023-04-30T04:34:28;100188.97;;;9.80;53.53
68456;BME280;55437;55.046;38.838;2023-04-30T04:36:54;100182.88;;;9.85;52.94
68456;BME280;55437;55.046;38.838;2023-04-30T04:39:20;100173.78;;;9.72;52.68
68456;BME280;55437;55.046;38.838;2023-04-30T04:41:46;100165.34;;;9.67;52.34
68456;BME280;55437;55.046;38.838;2023-04-30T04:44:13;100175.31;;;9.79;51.93
68456;BME280;55437;55.046;38.838;2023-04-30T04:46:39;100176.81;;;9.89;51.82
68456;BME280;55437;55.046;38.838;2023-04-30T04:49:06;100180.22;;;9.90;50.82
68456;BME280;55437;55.046;38.838;2023-04-30T04:51:32;100169.84;;;9.93;50.67
68456;BME280;55437;55.046;38.838;2023-04-30T04:53:58;100158.34;;;9.73;50.07
68456;BME280;55437;55.046;38.838;2023-04-30T04:56:24;100157.41;;;9.78;49.83
68456;BME280;55437;55.046;38.838;2023-04-30T04:58:50;100154.84;;;9.78;50.03
68456;BME280;55437;55.046;38.838;2023-04-30T05:01:16;100176.19;;;9.78;50.46
68456;BME280;55437;55.046;38.838;2023-04-30T05:03:44;100156.13;;;9.95;50.35
68456;BME280;55437;55.046;38.838;2023-04-30T05:06:13;100180.97;;;9.93;50.02
68456;BME280;55437;55.046;38.838;2023-04-30T05:08:41;100171.97;;;9.77;50.10
68456;BME280;55437;55.046;38.838;2023-04-30T05:11:06;100173.53;;;9.83;50.14
68456;BME280;55437;55.046;38.838;2023-04-30T05:13:32;100173.56;;;9.81;50.26
68456;BME280;55437;55.046;38.838;2023-04-30T05:15:58;100180.13;;;9.93;50.07
68456;BME280;55437;55.046;38.838;2023-04-30T05:18:23;100172.28;;;9.99;49.97
68456;BME280;55437;55.046;38.838;2023-04-30T05:20:49;100173.69;;;10.12;49.84
68456;BME280;55437;55.046;38.838;2023-04-30T05:23:15;100174.00;;;10.34;49.74
68456;BME280;55437;55.046;38.838;2023-04-30T05:25:41;100169.75;;;10.65;48.71
68456;BME280;55437;55.046;38.838;2023-04-30T05:28:26;100179.88;;;11.01;48.55
68456;BME280;55437;55.046;38.838;2023-04-30T05:30:51;100172.50;;;11.47;47.81
68456;BME280;55437;55.046;38.838;2023-04-30T05:33:17;100184.94;;;11.90;46.75
68456;BME280;55437;55.046;38.838;2023-04-30T05:35:43;100179.22;;;12.34;46.50
68456;BME280;55437;55.046;38.838;2023-04-30T05:38:09;100196.53;;;12.55;44.90
68456;BME280;55437;55.046;38.838;2023-04-30T05:40:35;100225.84;;;12.51;44.44
68456;BME280;55437;55.046;38.838;2023-04-30T05:43:00;100215.97;;;12.63;43.56
68456;BME280;55437;55.046;38.838;2023-04-30T05:45:26;100201.31;;;12.41;43.17
68456;BME280;55437;55.046;38.838;2023-04-30T05:47:52;100200.06;;;12.52;43.22
68456;BME280;55437;55.046;38.838;2023-04-30T05:50:18;100203.00;;;12.67;43.36
68456;BME280;55437;55.046;38.838;2023-04-30T05:52:44;100204.63;;;12.92;43.19
68456;BME280;55437;55.046;38.838;2023-04-30T05:55:10;100225.63;;;12.82;43.03
68456;BME280;55437;55.046;38.838;2023-04-30T05:57:36;100205.66;;;12.39;42.94
68456;BME280;55437;55.046;38.838;2023-04-30T06:00:02;100203.00;;;12.42;43.15
68456;BME280;55437;55.046;38.838;2023-04-30T06:02:38;100202.28;;;12.37;42.88
68456;BME280;55437;55.046;38.838;2023-04-30T06:05:05;100205.91;;;12.56;42.82
68456;BME280;55437;55.046;38.838;2023-04-30T06:07:32;100200.28;;;12.94;42.20
68456;BME280;55437;55.046;38.838;2023-04-30T06:09:58;100224.69;;;13.32;41.95
68456;BME280;55437;55.046;38.838;2023-04-30T06:12:23;100214.19;;;13.14;41.26
68456;BME280;55437;55.046;38.838;2023-04-30T06:14:50;100195.59;;;13.29;41.69
68456;BME280;55437;55.046;38.838;2023-04-30T06:17:16;100200.38;;;13.61;41.47
68456;BME280;55437;55.046;38.838;2023-04-30T06:19:43;100198.34;;;13.48;41.07
68456;BME280;55437;55.046;38.838;2023-04-30T06:22:09;100200.19;;;13.21;40.52
68456;BME280;55437;55.046;38.838;2023-04-30T06:24:35;100197.16;;;12.61;40.62
68456;BME280;55437;55.046;38.838;2023-04-30T06:27:01;100182.53;;;12.62;41.57
68456;BME280;55437;55.046;38.838;2023-04-30T06:29:28;100193.69;;;12.11;41.28
68456;BME280;55437;55.046;38.838;2023-04-30T06:31:54;100199.44;;;11.93;41.69
68456;BME280;55437;55.046;38.838;2023-04-30T06:34:20;100189.50;;;11.53;42.30
68456;BME280;55437;55.046;38.838;2023-04-30T06:36:46;100187.69;;;11.27;42.62
68456;BME280;55437;55.046;38.838;2023-04-30T06:39:15;100166.22;;;11.30;43.29
68456;BME280;55437;55.046;38.838;2023-04-30T06:41:41;100170.50;;;11.29;43.31
68456;BME280;55437;55.046;38.838;2023-04-30T06:44:09;100150.69;;;11.03;43.79
68456;BME280;55437;55.046;38.838;2023-04-30T06:46:35;100159.03;;;10.82;44.20
68456;BME280;55437;55.046;38.838;2023-04-30T06:49:00;100150.34;;;10.86;44.61
68456;BME280;55437;55.046;38.838;2023-04-30T06:51:26;100143.59;;;10.82;44.11
68456;BME280;55437;55.046;38.838;2023-04-30T06:53:55;100131.34;;;10.62;44.41
68456;BME280;55437;55.046;38.838;2023-04-30T06:56:21;100121.50;;;10.76;44.98
68456;BME280;55437;55.046;38.838;2023-04-30T06:58:49;100113.41;;;10.61;44.42
68456;BME280;55437;55.046;38.838;2023-04-30T07:01:16;100126.34;;;10.56;44.95
68456;BME280;55437;55.046;38.838;2023-04-30T07:03:42;100126.31;;;10.58;44.78
68456;BME280;55437;55.046;38.838;2023-04-30T07:06:08;100127.41;;;10.49;45.08
68456;BME280;55437;55.046;38.838;2023-04-30T07:08:34;100117.19;;;10.48;45.42
68456;BME280;55437;55.046;38.838;2023-04-30T07:11:00;100105.00;;;10.54;45.29
68456;BME280;55437;55.046;38.838;2023-04-30T07:13:44;100095.38;;;10.62;45.71
68456;BME280;55437;55.046;38.838;2023-04-30T07:16:10;100099.69;;;10.62;45.39
68456;BME280;55437;55.046;38.838;2023-04-30T07:18:36;100097.88;;;10.64;45.29
68456;BME280;55437;55.046;38.838;2023-04-30T07:21:04;100104.84;;;10.60;45.42
68456;BME280;55437;55.046;38.838;2023-04-30T07:23:31;100099.94;;;10.51;44.46
68456;BME280;55437;55.046;38.838;2023-04-30T07:25:57;100070.81;;;10.83;44.26
68456;BME280;55437;55.046;38.838;2023-04-30T07:28:23;100073.69;;;11.00;44.10
68456;BME280;55437;55.046;38.838;2023-04-30T07:30:49;100083.84;;;11.05;43.81
68456;BME280;55437;55.046;38.838;2023-04-30T07:33:15;100062.97;;;11.15;43.63
68456;BME280;55437;55.046;38.838;2023-04-30T07:35:41;100067.19;;;11.18;43.24
68456;BME280;55437;55.046;38.838;2023-04-30T07:38:09;100055.38;;;11.39;42.79
68456;BME280;55437;55.046;38.838;2023-04-30T07:40:35;100050.19;;;11.40;43.40
68456;BME280;55437;55.046;38.838;2023-04-30T07:43:00;100050.28;;;11.37;42.67
68456;BME280;55437;55.046;38.838;2023-04-30T07:45:26;100030.72;;;11.33;42.44
68456;BME280;55437;55.046;38.838;2023-04-30T07:47:52;100005.63;;;11.40;42.28
68456;BME280;55437;55.046;38.838;2023-04-30T07:50:18;100013.13;;;11.21;41.63
68456;BME280;55437;55.046;38.838;2023-04-30T07:52:43;100018.44;;;11.41;42.05
68456;BME280;55437;55.046;38.838;2023-04-30T07:55:10;100002.63;;;11.53;42.09
68456;BME280;55437;55.046;38.838;2023-04-30T07:57:37;99977.22;;;11.44;41.95
68456;BME280;55437;55.046;38.838;2023-04-30T08:00:03;99981.47;;;11.45;42.12
68456;BME280;55437;55.046;38.838;2023-04-30T08:02:47;99954.28;;;11.38;42.11
68456;BME280;55437;55.046;38.838;2023-04-30T08:05:14;99971.81;;;11.52;41.71
68456;BME280;55437;55.046;38.838;2023-04-30T08:07:59;99956.84;;;11.63;41.44
68456;BME280;55437;55.046;38.838;2023-04-30T08:10:25;99960.44;;;11.59;41.08
68456;BME280;55437;55.046;38.838;2023-04-30T08:13:10;99958.63;;;11.61;40.91
68456;BME280;55437;55.046;38.838;2023-04-30T08:15:35;99948.81;;;11.97;40.78
68456;BME280;55437;55.046;38.838;2023-04-30T08:18:04;99940.22;;;11.98;40.83
68456;BME280;55437;55.046;38.838;2023-04-30T08:20:31;99922.16;;;12.00;40.61
68456;BME280;55437;55.046;38.838;2023-04-30T08:22:57;99920.34;;;11.78;40.78
68456;BME280;55437;55.046;38.838;2023-04-30T08:25:23;99912.41;;;11.84;40.99
68456;BME280;55437;55.046;38.838;2023-04-30T08:27:48;99907.00;;;11.67;40.98
68456;BME280;55437;55.046;38.838;2023-04-30T08:30:14;99907.75;;;11.71;41.46
68456;BME280;55437;55.046;38.838;2023-04-30T08:32:40;99903.63;;;11.65;41.55
68456;BME280;55437;55.046;38.838;2023-04-30T08:35:06;99905.50;;;11.60;41.68
68456;BME280;55437;55.046;38.838;2023-04-30T08:37:33;99906.31;;;11.62;41.36
68456;BME280;55437;55.046;38.838;2023-04-30T08:39:59;99916.41;;;11.68;41.83
68456;BME280;55437;55.046;38.838;2023-04-30T08:42:29;99927.22;;;11.53;41.74
68456;BME280;55437;55.046;38.838;2023-04-30T08:44:56;99917.75;;;11.53;41.55
68456;BME280;55437;55.046;38.838;2023-04-30T08:47:23;99909.22;;;11.53;42.24
68456;BME280;55437;55.046;38.838;2023-04-30T08:49:48;99911.22;;;11.45;41.67
68456;BME280;55437;55.046;38.838;2023-04-30T08:52:34;99924.16;;;11.42;41.74
68456;BME280;55437;55.046;38.838;2023-04-30T08:55:01;99919.88;;;11.42;41.96
68456;BME280;55437;55.046;38.838;2023-04-30T08:57:31;99925.00;;;11.67;41.80
68456;BME280;55437;55.046;38.838;2023-04-30T08:59:57;99930.63;;;11.53;40.82
68456;BME280;55437;55.046;38.838;2023-04-30T09:02:24;99925.94;;;11.65;41.22
68456;BME280;55437;55.046;38.838;2023-04-30T09:04:51;99908.22;;;11.57;41.00
68456;BME280;55437;55.046;38.838;2023-04-30T09:07:18;99916.34;;;11.45;40.27
68456;BME280;55437;55.046;38.838;2023-04-30T09:09:45;99916.66;;;11.36;40.82
68456;BME280;55437;55.046;38.838;2023-04-30T09:12:11;99897.94;;;11.32;40.42
68456;BME280;55437;55.046;38.838;2023-04-30T09:14:38;99894.53;;;11.32;40.32
68456;BME280;55437;55.046;38.838;2023-04-30T09:17:05;99897.50;;;11.44;40.47
68456;BME280;55437;55.046;38.838;2023-04-30T09:19:32;99901.63;;;11.48;40.28
68456;BME280;55437;55.046;38.838;2023-04-30T09:21:58;99910.19;;;11.49;40.31
68456;BME280;55437;55.046;38.838;2023-04-30T09:24:24;99904.72;;;11.35;40.00
68456;BME280;55437;55.046;38.838;2023-04-30T09:26:50;99899.72;;;11.30;40.14
68456;BME280;55437;55.046;38.838;2023-04-30T09:29:16;99929.03;;;11.25;40.50
68456;BME280;55437;55.046;38.838;2023-04-30T09:31:44;99916.13;;;11.26;40.57
68456;BME280;55437;55.046;38.838;2023-04-30T09:34:10;99910.59;;;11.12;40.65
68456;BME280;55437;55.046;38.838;2023-04-30T09:36:54;99919.19;;;11.11;41.21
68456;BME280;55437;55.046;38.838;2023-04-30T09:39:21;99912.50;;;11.07;41.01
68456;BME280;55437;55.046;38.838;2023-04-30T09:41:47;99927.16;;;11.03;41.32
68456;BME280;55437;55.046;38.838;2023-04-30T09:44:30;99910.06;;;11.02;42.16
68456;BME280;55437;55.046;38.838;2023-04-30T09:46:58;99913.56;;;11.00;41.81
68456;BME280;55437;55.046;38.838;2023-04-30T09:49:24;99914.25;;;11.05;42.35
68456;BME280;55437;55.046;38.838;2023-04-30T09:51:55;99912.28;;;11.13;42.43
68456;BME280;55437;55.046;38.838;2023-04-30T09:54:25;99929.25;;;11.18;42.06
68456;BME280;55437;55.046;38.838;2023-04-30T09:56:53;99921.72;;;11.12;42.47
68456;BME280;55437;55.046;38.838;2023-04-30T09:59:21;99913.81;;;11.18;42.98
68456;BME280;55437;55.046;38.838;2023-04-30T10:01:49;99905.00;;;11.26;42.83
68456;BME280;55437;55.046;38.838;2023-04-30T10:04:18;99915.59;;;11.41;42.83
68456;BME280;55437;55.046;38.838;2023-04-30T10:06:45;99905.13;;;11.23;43.60
68456;BME280;55437;55.046;38.838;2023-04-30T10:09:12;99918.69;;;11.26;43.67
68456;BME280;55437;55.046;38.838;2023-04-30T10:11:42;99922.91;;;11.29;43.68
68456;BME280;55437;55.046;38.838;2023-04-30T10:14:15;99904.69;;;11.10;43.98
68456;BME280;55437;55.046;38.838;2023-04-30T10:16:52;99901.56;;;11.00;44.59
68456;BME280;55437;55.046;38.838;2023-04-30T10:19:23;99909.38;;;10.97;45.04
68456;BME280;55437;55.046;38.838;2023-04-30T10:21:49;99894.59;;;10.77;46.52
68456;BME280;55437;55.046;38.838;2023-04-30T10:24:34;99894.06;;;10.40;48.87
68456;BME280;55437;55.046;38.838;2023-04-30T10:27:00;99910.22;;;10.14;50.68
68456;BME280;55437;55.046;38.838;2023-04-30T10:29:25;99908.28;;;9.91;52.29
68456;BME280;55437;55.046;38.838;2023-04-30T10:31:51;99907.16;;;9.70;53.83
68456;BME280;55437;55.046;38.838;2023-04-30T10:34:37;99909.66;;;9.41;55.70
68456;BME280;55437;55.046;38.838;2023-04-30T10:37:19;99893.97;;;9.19;57.33
68456;BME280;55437;55.046;38.838;2023-04-30T10:39:47;99894.28;;;9.07;58.52
68456;BME280;55437;55.046;38.838;2023-04-30T10:42:13;99890.16;;;9.03;59.57
68456;BME280;55437;55.046;38.838;2023-04-30T10:44:39;99886.06;;;8.94;60.46
68456;BME280;55437;55.046;38.838;2023-04-30T10:47:06;99889.00;;;8.81;60.94
68456;BME280;55437;55.046;38.838;2023-04-30T10:49:32;99890.16;;;8.68;61.68
68456;BME280;55437;55.046;38.838;2023-04-30T10:52:00;99893.63;;;8.65;62.84
68456;BME280;55437;55.046;38.838;2023-04-30T10:54:31;99902.22;;;8.61;63.44
68456;BME280;55437;55.046;38.838;2023-04-30T10:57:16;99896.59;;;8.47;64.26
68456;BME280;55437;55.046;38.838;2023-04-30T11:02:42;99887.56;;;8.32;65.34
68456;BME280;55437;55.046;38.838;2023-04-30T11:05:12;99887.66;;;8.24;65.76
68456;BME280;55437;55.046;38.838;2023-04-30T11:07:57;99884.16;;;8.30;66.10
68456;BME280;55437;55.046;38.838;2023-04-30T11:10:24;99876.34;;;8.36;66.58
68456;BME280;55437;55.046;38.838;2023-04-30T11:13:08;99876.44;;;8.33;66.96
68456;BME280;55437;55.046;38.838;2023-04-30T11:15:41;99867.84;;;8.36;67.02
68456;BME280;55437;55.046;38.838;2023-04-30T11:18:09;99851.66;;;8.35;67.70
68456;BME280;55437;55.046;38.838;2023-04-30T11:20:39;99854.31;;;8.32;67.56
68456;BME280;55437;55.046;38.838;2023-04-30T11:23:14;99838.97;;;8.29;67.45
68456;BME280;55437;55.046;38.838;2023-04-30T11:25:44;99835.59;;;8.27;67.13
68456;BME280;55437;55.046;38.838;2023-04-30T11:28:16;99823.03;;;8.18;66.96
68456;BME280;55437;55.046;38.838;2023-04-30T11:30:53;99815.31;;;8.21;67.22
68456;BME280;55437;55.046;38.838;2023-04-30T11:33:21;99809.22;;;8.25;67.26
68456;BME280;55437;55.046;38.838;2023-04-30T11:35:48;99794.50;;;8.36;67.10
68456;BME280;55437;55.046;38.838;2023-04-30T11:38:23;99793.56;;;8.40;67.66
68456;BME280;55437;55.046;38.838;2023-04-30T11:40:51;99792.72;;;8.40;67.21
68456;BME280;55437;55.046;38.838;2023-04-30T11:43:22;99783.94;;;8.50;66.95
68456;BME280;55437;55.046;38.838;2023-04-30T11:48:31;99756.31;;;8.62;66.66
68456;BME280;55437;55.046;38.838;2023-04-30T11:50:58;99740.72;;;8.72;66.63
68456;BME280;55437;55.046;38.838;2023-04-30T11:53:27;99734.69;;;8.74;66.30
68456;BME280;55437;55.046;38.838;2023-04-30T11:55:54;99740.69;;;8.73;66.23
68456;BME280;55437;55.046;38.838;2023-04-30T11:58:20;99741.59;;;8.71;66.33
68456;BME280;55437;55.046;38.838;2023-04-30T12:01:11;99739.03;;;8.71;66.22
68456;BME280;55437;55.046;38.838;2023-04-30T12:03:55;99748.38;;;8.73;66.37
68456;BME280;55437;55.046;38.838;2023-04-30T12:06:23;99740.94;;;8.64;66.75
68456;BME280;55437;55.046;38.838;2023-04-30T12:08:52;99753.13;;;8.54;67.05
68456;BME280;55437;55.046;38.838;2023-04-30T12:11:22;99754.06;;;8.50;67.47
68456;BME280;55437;55.046;38.838;2023-04-30T12:13:55;99756.66;;;8.49;67.83
68456;BME280;55437;55.046;38.838;2023-04-30T12:16:26;99753.47;;;8.41;68.02
68456;BME280;55437;55.046;38.838;2023-04-30T12:19:11;99757.72;;;8.40;68.13
68456;BME280;55437;55.046;38.838;2023-04-30T12:21:38;99755.25;;;8.37;68.57
68456;BME280;55437;55.046;38.838;2023-04-30T12:24:05;99742.44;;;8.37;69.28
68456;BME280;55437;55.046;38.838;2023-04-30T12:26:35;99756.97;;;8.37;69.70
68456;BME280;55437;55.046;38.838;2023-04-30T12:29:23;99751.00;;;8.36;70.03
68456;BME280;55437;55.046;38.838;2023-04-30T12:31:50;99747.72;;;8.29;70.76
68456;BME280;55437;55.046;38.838;2023-04-30T12:34:36;99756.53;;;8.18;71.41
68456;BME280;55437;55.046;38.838;2023-04-30T12:37:02;99749.56;;;8.23;71.75
68456;BME280;55437;55.046;38.838;2023-04-30T12:39:32;99757.03;;;7.97;73.17
68456;BME280;55437;55.046;38.838;2023-04-30T12:41:59;99754.50;;;7.95;72.88
68456;BME280;55437;55.046;38.838;2023-04-30T12:44:26;99747.13;;;7.83;74.09
68456;BME280;55437;55.046;38.838;2023-04-30T12:46:57;99735.34;;;7.76;74.31
68456;BME280;55437;55.046;38.838;2023-04-30T12:49:29;99718.47;;;7.69;75.32
68456;BME280;55437;55.046;38.838;2023-04-30T12:52:00;99693.28;;;7.52;75.69
68456;BME280;55437;55.046;38.838;2023-04-30T12:54:45;99694.22;;;7.48;76.18
68456;BME280;55437;55.046;38.838;2023-04-30T12:57:29;99683.38;;;7.37;76.65
68456;BME280;55437;55.046;38.838;2023-04-30T12:59:57;99672.34;;;7.36;76.44
68456;BME280;55437;55.046;38.838;2023-04-30T13:02:26;99665.66;;;7.31;77.14
68456;BME280;55437;55.046;38.838;2023-04-30T13:04:53;99661.59;;;7.22;77.17
68456;BME280;55437;55.046;38.838;2023-04-30T13:07:19;99657.41;;;7.18;77.68
68456;BME280;55437;55.046;38.838;2023-04-30T13:09:46;99655.88;;;7.11;78.50
68456;BME280;55437;55.046;38.838;2023-04-30T13:12:12;99649.13;;;7.07;78.42
68456;BME280;55437;55.046;38.838;2023-04-30T13:14:38;99655.19;;;7.01;79.01
68456;BME280;55437;55.046;38.838;2023-04-30T13:17:05;99653.41;;;7.06;78.98
68456;BME280;55437;55.046;38.838;2023-04-30T13:19:33;99643.44;;;6.94;79.36
68456;BME280;55437;55.046;38.838;2023-04-30T13:22:01;99657.19;;;6.87;79.85